Time;durP1;ratioP1;P1;durP2;ratioP2;P2;SDS_P1;SDS_P2;PMS_P1;PMS_P2;Temp;Humidity;BMP_temperature;BMP_pressure;BME280_temperature;BME280_humidity;BME280_pressure;Samples;Min_cycle;Max_cycle;Signal;HPM_P1;HPM_P2
2021/06/22 00:00:41;;;;;;;9.75;4.15;;;22.80;65.20;;;22.72;48.64;94096.78;4746794;29;20239;-80
2021/06/22 00:05:12;;;;;;;7.07;3.97;;;22.70;65.40;;;22.65;48.83;94107.84;5131999;27;20545;-79
2021/06/22 00:07:39;;;;;;;5.50;4.07;;;22.60;65.30;;;22.67;48.96;94115.59;5108168;28;20653;-80
2021/06/22 00:10:06;;;;;;;10.80;4.20;;;22.60;65.50;;;22.67;49.38;94112.91;5085919;28;20265;-80
2021/06/22 00:12:33;;;;;;;8.25;4.20;;;22.60;65.60;;;22.68;48.82;94117.19;5075630;28;20197;-79
2021/06/22 00:15:00;;;;;;;6.85;4.07;;;22.60;65.50;;;22.64;49.41;94110.81;5035945;28;20255;-79
2021/06/22 00:17:26;;;;;;;7.65;4.00;;;22.60;65.50;;;22.67;48.90;94120.94;4895729;29;20270;-79
2021/06/22 00:19:53;;;;;;;9.50;4.10;;;22.50;65.50;;;22.66;49.02;94114.00;4823370;29;20227;-80
2021/06/22 00:22:20;;;;;;;7.38;4.30;;;22.50;65.40;;;22.65;49.39;94118.53;4764191;29;20214;-80
2021/06/22 00:27:23;;;;;;;5.60;4.25;;;22.50;65.50;;;22.69;49.93;94111.53;5150126;27;20342;-79
2021/06/22 00:29:51;;;;;;;7.13;4.72;;;22.50;65.80;;;22.69;50.00;94116.88;5089280;28;20221;-80
2021/06/22 00:32:18;;;;;;;9.60;4.13;;;22.50;65.90;;;22.67;49.51;94107.56;5107206;28;20705;-80
2021/06/22 00:34:45;;;;;;;10.60;4.30;;;22.50;66.00;;;22.65;49.72;94099.81;5085002;28;20249;-80
2021/06/22 00:37:16;;;;;;;5.90;4.13;;;22.50;65.90;;;22.66;49.91;94082.69;5039166;28;20218;-80
2021/06/22 00:39:43;;;;;;;6.20;4.20;;;22.50;66.00;;;22.67;49.85;94092.31;5001520;28;20581;-82
2021/06/22 00:42:11;;;;;;;8.63;4.65;;;22.50;66.00;;;22.67;49.45;94102.22;4942629;28;20241;-81
2021/06/22 00:44:57;;;;;;;5.40;4.00;;;22.50;66.10;;;22.68;49.83;94106.50;4825597;29;20230;-80
2021/06/22 00:49:35;;;;;;;5.88;4.18;;;22.50;66.20;;;22.61;49.90;94122.09;5137570;27;21169;-80
2021/06/22 00:52:03;;;;;;;9.27;3.88;;;22.50;66.00;;;22.60;49.63;94120.50;5082534;28;20575;-80
2021/06/22 00:54:40;;;;;;;6.22;4.30;;;22.50;66.20;;;22.64;49.91;94124.97;5059668;28;20225;-79
2021/06/22 00:57:09;;;;;;;7.28;4.40;;;22.50;66.40;;;22.67;50.12;94126.28;5070778;28;20194;-81
2021/06/22 00:59:37;;;;;;;4.57;3.90;;;22.50;66.40;;;22.69;50.37;94129.44;5039240;28;20288;-80
2021/06/22 01:02:07;;;;;;;8.18;3.75;;;22.50;66.50;;;22.71;50.29;94146.78;4969751;28;20218;-80
2021/06/22 01:04:36;;;;;;;7.03;4.05;;;22.50;67.40;;;22.73;50.13;94177.78;4842662;29;20373;-80
2021/06/22 01:07:19;;;;;;;7.72;4.88;;;22.50;66.60;;;22.69;51.62;94234.50;4738463;30;20314;-79
2021/06/22 01:11:48;;;;;;;14.75;5.50;;;22.50;66.90;;;22.54;53.83;94288.94;5149706;27;20632;-79
2021/06/22 01:14:14;;;;;;;10.70;5.82;;;22.50;68.00;;;22.49;54.10;94291.63;5108446;28;20229;-80
2021/06/22 01:16:42;;;;;;;7.30;4.95;;;22.50;68.40;;;22.50;53.05;94292.44;5085045;28;20202;-80
2021/06/22 01:19:09;;;;;;;7.55;5.07;;;22.40;68.20;;;22.58;52.78;94299.03;5074552;28;20231;-81
2021/06/22 01:21:48;;;;;;;6.72;5.00;;;22.40;68.40;;;22.62;53.75;94324.09;5044641;28;20678;-79
2021/06/22 01:24:22;;;;;;;12.95;4.82;;;22.40;68.60;;;22.67;54.30;94329.44;4983530;28;20238;-80
2021/06/22 01:27:00;;;;;;;11.57;4.70;;;22.50;68.80;;;22.48;55.71;94286.56;4927985;28;20212;-81
2021/06/22 01:32:39;;;;;;;4.93;2.80;;;22.40;71.20;;;21.66;61.68;94288.00;5134814;27;20979;-79
2021/06/22 01:35:08;;;;;;;5.93;3.13;;;22.20;73.70;;;21.33;62.53;94251.06;5089370;28;20238;-79
2021/06/22 01:37:36;;;;;;;6.80;3.22;;;22.00;75.00;;;20.97;62.86;94199.81;5052854;28;20543;-78
2021/06/22 01:40:08;;;;;;;9.20;3.38;;;21.70;75.70;;;20.79;62.34;94223.38;5032830;28;20704;-78
2021/06/22 01:42:36;;;;;;;16.90;4.35;;;21.40;76.70;;;20.60;63.03;94226.59;4972672;28;20272;-79
2021/06/22 01:45:04;;;;;;;7.38;3.75;;;21.10;77.40;;;20.48;63.37;94242.06;4909780;29;20231;-78
2021/06/22 01:47:32;;;;;;;7.40;3.83;;;20.90;79.40;;;20.34;63.60;94206.44;4846236;29;20702;-79
2021/06/22 01:50:04;;;;;;;8.95;3.97;;;20.70;81.00;;;20.25;64.52;94225.63;4745080;29;20253;-78
2021/06/22 01:54:04;;;;;;;6.47;3.38;;;20.50;82.10;;;20.20;64.73;94241.63;5141421;27;20655;-78
2021/06/22 01:56:33;;;;;;;6.93;4.00;;;20.30;84.10;;;20.19;65.26;94239.19;5072012;28;20210;-79
2021/06/22 01:59:03;;;;;;;4.85;3.70;;;20.20;84.80;;;20.23;65.33;94251.72;5061520;28;20646;-80
2021/06/22 02:01:35;;;;;;;7.72;3.80;;;20.20;85.70;;;20.24;65.02;94248.00;5012060;28;20558;-81
2021/06/22 02:04:10;;;;;;;8.65;3.88;;;20.10;86.80;;;20.28;65.40;94245.59;4917136;28;20244;-80
2021/06/22 02:06:38;;;;;;;5.80;3.75;;;20.10;87.40;;;20.29;65.62;94231.22;4833485;29;20242;-81
2021/06/22 02:09:23;;;;;;;5.47;3.90;;;20.10;88.10;;;20.40;65.61;94219.47;4662433;30;20305;-83
2021/06/22 02:12:16;;;;;;;8.15;4.25;;;20.10;88.80;;;20.51;66.01;94225.56;5151458;27;20647;-81
2021/06/22 02:14:42;;;;;;;6.93;4.07;;;20.00;89.50;;;20.57;66.02;94243.13;5111413;27;20220;-85
2021/06/22 02:17:09;;;;;;;7.88;4.78;;;20.10;90.00;;;20.61;66.78;94244.16;5093399;28;20202;-84
2021/06/22 02:19:35;;;;;;;9.25;4.45;;;20.20;90.00;;;20.64;66.95;94232.16;5080539;28;20378;-85
2021/06/22 02:22:08;;;;;;;8.10;4.47;;;20.20;90.10;;;20.64;66.97;94237.50;5010647;28;20221;-84
2021/06/22 02:24:44;;;;;;;6.50;4.00;;;20.30;90.20;;;20.64;67.23;94229.50;4945038;28;20644;-85
2021/06/22 02:27:33;;;;;;;6.88;4.50;;;20.30;90.30;;;20.62;67.21;94213.78;4855998;29;20222;-85
2021/06/22 02:31:12;;;;;;;6.55;4.38;;;20.30;90.40;;;20.57;68.04;94221.81;5144822;27;20622;-86
2021/06/22 02:33:39;;;;;;;7.75;4.80;;;20.30;90.40;;;20.51;68.47;94208.75;5092459;28;20226;-86
2021/06/22 02:36:09;;;;;;;7.97;4.75;;;20.20;90.50;;;20.58;68.40;94233.25;5063687;28;20211;-85
2021/06/22 02:38:41;;;;;;;6.15;4.43;;;20.30;90.70;;;20.62;68.77;94247.63;5011342;28;20217;-85
2021/06/22 02:41:12;;;;;;;5.95;4.57;;;20.30;90.80;;;20.58;68.51;94241.25;4956025;28;20211;-86
2021/06/22 02:43:41;;;;;;;11.65;5.47;;;20.30;90.90;;;20.66;69.42;94250.56;4951784;28;20252;-85
2021/06/22 02:46:09;;;;;;;6.65;4.70;;;20.30;91.00;;;20.66;69.67;94245.22;4895219;29;20196;-86
2021/06/22 02:48:38;;;;;;;6.68;5.05;;;20.30;91.10;;;20.70;69.59;94249.75;4829059;29;20341;-86
2021/06/22 02:53:10;;;;;;;7.00;5.13;;;20.30;91.20;;;20.70;69.71;94243.59;5150926;27;21130;-85
2021/06/22 02:55:37;;;;;;;5.78;4.93;;;20.40;91.40;;;20.69;69.99;94240.16;5115700;28;20212;-86
2021/06/22 02:58:06;;;;;;;5.97;4.93;;;20.40;91.50;;;20.81;70.19;94244.41;5110028;28;20271;-86
2021/06/22 03:00:33;;;;;;;8.35;5.30;;;20.40;91.60;;;20.83;70.78;94255.59;5047029;28;20203;-86
2021/06/22 03:03:06;;;;;;;6.32;4.95;;;20.40;91.50;;;20.80;71.02;94262.28;4976626;28;20302;-85
2021/06/22 03:05:38;;;;;;;8.80;5.18;;;20.40;91.60;;;20.82;71.06;94265.44;4867003;29;20217;-85
2021/06/22 03:08:06;;;;;;;7.30;4.93;;;20.50;91.70;;;20.83;70.99;94280.38;4871089;29;20300;-85
2021/06/22 03:10:36;;;;;;;7.97;4.72;;;20.50;91.70;;;20.84;71.74;94283.84;4712052;29;20282;-85
2021/06/22 03:15:36;;;;;;;6.72;3.85;;;20.50;91.80;;;20.79;71.34;94301.44;5144047;27;20371;-86
2021/06/22 03:18:03;;;;;;;5.28;4.03;;;20.50;91.70;;;20.75;71.55;94304.91;5086349;28;20201;-86
2021/06/22 03:20:35;;;;;;;9.55;4.18;;;20.60;91.80;;;20.72;72.11;94297.47;5089023;28;20275;-87
2021/06/22 03:23:06;;;;;;;7.13;4.32;;;20.50;91.80;;;20.64;71.82;94296.09;5061358;28;20291;-86
2021/06/22 03:25:33;;;;;;;7.15;3.65;;;20.50;91.70;;;20.63;72.30;94305.97;5023209;28;20210;-85
2021/06/22 03:28:03;;;;;;;6.50;4.00;;;20.40;91.80;;;20.59;72.29;94302.28;4951639;28;20204;-85
2021/06/22 03:31:02;;;;;;;5.60;4.00;;;20.40;91.80;;;20.59;72.41;94294.28;4672125;29;20222;-84
2021/06/22 03:34:16;;;;;;;4.50;3.80;;;20.40;92.00;;;20.52;72.52;94295.59;5126868;27;20843;-85
2021/06/22 03:36:43;;;;;;;5.45;3.67;;;20.40;92.00;;;20.53;72.91;94300.69;5086484;28;20250;-85
2021/06/22 03:39:10;;;;;;;6.55;3.97;;;20.30;92.00;;;20.54;72.94;94317.47;5040396;28;21195;-85
2021/06/22 03:41:37;;;;;;;6.60;3.75;;;20.40;92.00;;;20.52;72.74;94320.41;5034743;28;20269;-85
2021/06/22 03:44:07;;;;;;;4.28;3.50;;;20.30;92.00;;;20.49;73.22;94323.59;4976975;28;20703;-84
2021/06/22 03:46:46;;;;;;;4.53;3.28;;;20.30;92.10;;;20.48;72.92;94328.13;4777281;29;20224;-86
2021/06/22 03:49:13;;;;;;;5.95;3.90;;;20.30;92.20;;;20.50;72.77;94327.06;4632086;30;20328;-86
2021/06/22 03:51:40;;;;;;;4.25;3.40;;;20.30;92.30;;;20.52;73.39;94333.72;4439219;31;20229;-87
2021/06/22 03:55:43;;;;;;;4.22;3.30;;;20.20;92.40;;;20.56;73.39;94349.97;5133604;27;21101;-86
2021/06/22 03:58:30;;;;;;;5.18;3.13;;;20.30;92.50;;;20.53;73.41;94348.63;5098244;28;20229;-86
2021/06/22 04:00:58;;;;;;;5.55;3.10;;;20.30;92.40;;;20.50;72.97;94351.81;5085214;28;20271;-87
2021/06/22 04:03:30;;;;;;;5.38;3.30;;;20.30;92.40;;;20.51;73.12;94349.94;5038451;28;20748;-86
2021/06/22 04:06:20;;;;;;;4.32;2.92;;;20.30;92.40;;;20.45;73.37;94352.63;4947002;28;20597;-85
2021/06/22 04:08:51;;;;;;;5.13;3.22;;;20.30;92.40;;;20.42;73.73;94361.16;4914223;28;20248;-86
2021/06/22 04:11:22;;;;;;;5.85;3.05;;;20.30;92.50;;;20.39;73.43;94351.03;4874743;29;20214;-86
2021/06/22 04:14:00;;;;;;;4.30;3.05;;;20.20;92.30;;;20.37;73.31;94369.13;5142885;27;20576;-87
2021/06/22 04:16:35;;;;;;;4.80;2.90;;;20.20;92.20;;;20.32;73.47;94361.16;5043848;28;20555;-86
2021/06/22 04:19:02;;;;;;;4.63;2.70;;;20.20;92.40;;;20.27;73.52;94356.63;5087804;28;20221;-87
2021/06/22 04:21:34;;;;;;;4.78;2.80;;;20.20;92.40;;;20.27;73.55;94361.16;5046393;28;20214;-84
2021/06/22 04:24:01;;;;;;;3.88;2.90;;;20.10;92.40;;;20.24;73.80;94362.50;4970986;28;20230;-85
2021/06/22 04:26:28;;;;;;;6.13;2.70;;;20.10;92.50;;;20.22;73.91;94361.16;4901227;29;20300;-85
2021/06/22 04:28:55;;;;;;;3.15;2.45;;;20.10;92.60;;;20.24;74.58;94367.03;4934223;28;20312;-86
2021/06/22 04:31:22;;;;;;;5.05;3.10;;;20.10;92.70;;;20.27;74.24;94369.16;4769970;29;20311;-85
2021/06/22 04:35:41;;;;;;;5.00;2.97;;;20.10;92.70;;;20.29;74.37;94373.13;5146751;27;20624;-86
2021/06/22 04:38:09;;;;;;;4.20;2.78;;;20.10;92.70;;;20.24;74.42;94367.81;5098335;28;20209;-86
2021/06/22 04:40:38;;;;;;;5.93;3.17;;;20.10;92.70;;;20.33;74.18;94377.94;5069258;28;20240;-86
2021/06/22 04:43:05;;;;;;;4.13;2.88;;;20.10;92.70;;;20.31;73.82;94384.34;5063958;28;20234;-85
2021/06/22 04:45:35;;;;;;;4.25;2.75;;;20.20;92.70;;;20.25;73.63;94380.06;5073887;28;20689;-86
2021/06/22 04:48:04;;;;;;;4.63;2.83;;;20.10;92.60;;;20.23;73.90;94376.88;5012924;28;20225;-86
2021/06/22 04:50:31;;;;;;;3.00;2.60;;;20.10;92.70;;;20.18;74.38;94382.19;4961305;28;20231;-84
2021/06/22 04:52:57;;;;;;;5.18;2.70;;;20.00;92.60;;;20.19;74.55;94380.31;4870697;29;20226;-87
2021/06/22 04:57:12;;;;;;;4.28;2.83;;;20.00;92.60;;;20.19;74.69;94385.66;5132172;27;20649;-87
2021/06/22 04:59:41;;;;;;;2.92;2.60;;;20.00;92.60;;;20.22;74.26;94390.47;5072217;28;20273;-86
2021/06/22 05:02:20;;;;;;;7.13;2.88;;;20.00;92.80;;;20.23;74.89;94378.75;5041844;28;20213;-87
2021/06/22 05:04:47;;;;;;;7.28;2.95;;;20.00;92.80;;;20.23;75.01;94378.75;5056588;28;20224;-86
2021/06/22 05:07:13;;;;;;;5.03;2.90;;;20.00;92.90;;;20.29;74.31;94386.47;4994206;28;20211;-87
2021/06/22 05:09:40;;;;;;;4.68;2.60;;;20.10;93.00;;;20.33;74.99;94385.94;4847328;29;20546;-86
2021/06/22 05:12:07;;;;;;;5.57;3.00;;;20.10;93.10;;;20.38;74.86;94388.59;4759286;29;20224;-87
2021/06/22 05:14:33;;;;;;;3.72;2.80;;;20.10;93.10;;;20.41;74.40;94393.38;4550728;30;20248;-87
2021/06/22 05:17:07;;;;;;;3.30;2.88;;;20.10;93.10;;;20.40;75.15;94384.59;5141252;27;20314;-87
2021/06/22 05:19:33;;;;;;;5.18;2.88;;;20.10;93.10;;;20.45;74.48;94386.47;5103265;27;20217;-86
2021/06/22 05:22:00;;;;;;;5.80;2.83;;;20.20;93.10;;;20.50;75.17;94391.78;5084216;28;20285;-87
2021/06/22 05:24:27;;;;;;;4.68;2.72;;;20.20;93.20;;;20.57;75.29;94396.88;5036674;28;20243;-86
2021/06/22 05:26:54;;;;;;;6.60;3.30;;;20.20;93.20;;;20.60;74.76;94390.97;4974698;28;20202;-86
2021/06/22 05:29:20;;;;;;;4.47;3.00;;;20.20;93.20;;;20.62;75.16;94391.53;4902768;29;20781;-86
2021/06/22 05:31:47;;;;;;;4.00;2.80;;;20.30;93.20;;;20.63;74.77;94388.59;4816954;29;20199;-86
2021/06/22 05:34:13;;;;;;;3.42;2.80;;;20.30;93.30;;;20.66;74.47;94394.44;4704782;29;20260;-86
2021/06/22 05:38:34;;;;;;;3.83;2.83;;;20.30;93.20;;;20.67;74.89;94393.38;5139372;27;21163;-86
2021/06/22 05:41:01;;;;;;;5.53;3.30;;;20.40;93.30;;;20.72;75.00;94399.53;5074394;28;20324;-87
2021/06/22 05:43:27;;;;;;;7.00;2.72;;;20.50;93.30;;;20.69;74.78;94396.56;5087304;28;20237;-86
2021/06/22 05:45:54;;;;;;;4.50;3.03;;;20.50;93.30;;;20.76;74.47;94405.94;5029153;28;20219;-85
2021/06/22 05:48:20;;;;;;;5.93;3.17;;;20.50;93.30;;;20.75;75.04;94403.50;5018363;28;20250;-87
2021/06/22 05:50:47;;;;;;;5.10;2.80;;;20.50;93.30;;;20.83;75.00;94402.19;4914440;29;20205;-86
2021/06/22 05:53:14;;;;;;;6.07;2.90;;;20.40;93.30;;;20.87;75.18;94408.56;4872541;29;20739;-85
2021/06/22 05:55:40;;;;;;;4.65;2.90;;;20.50;93.40;;;20.86;74.85;94398.97;4819263;29;20212;-86
2021/06/22 05:58:18;;;;;;;6.03;3.10;;;20.50;93.40;;;20.89;74.98;94404.56;5149577;27;20382;-85
2021/06/22 06:00:44;;;;;;;5.82;3.20;;;20.50;93.40;;;20.92;74.97;94398.72;5126232;28;20192;-86
2021/06/22 06:03:11;;;;;;;5.93;3.17;;;20.60;93.50;;;20.97;75.27;94400.56;5091161;28;20560;-85
2021/06/22 06:05:38;;;;;;;4.28;3.42;;;20.60;93.50;;;20.98;75.28;94396.81;5050167;28;20234;-85
2021/06/22 06:08:05;;;;;;;6.38;3.25;;;20.60;93.50;;;20.97;74.51;94407.75;5045010;28;20297;-86
2021/06/22 06:10:33;;;;;;;4.20;3.17;;;20.70;93.30;;;20.99;74.79;94406.41;4997232;28;20683;-86
2021/06/22 06:13:00;;;;;;;4.40;3.20;;;20.70;93.50;;;21.03;75.13;94406.69;4950071;28;20203;-86
2021/06/22 06:15:26;;;;;;;6.55;3.47;;;20.70;93.50;;;21.01;74.99;94411.50;4766014;29;20236;-86
2021/06/22 06:18:05;;;;;;;5.22;3.38;;;20.70;93.30;;;21.02;74.25;94423.72;5151271;27;20645;-86
2021/06/22 06:20:32;;;;;;;4.30;3.13;;;20.70;93.20;;;21.00;74.72;94412.56;5102982;28;20312;-86
2021/06/22 06:22:58;;;;;;;3.90;3.38;;;20.70;93.30;;;21.00;74.17;94420.56;5111387;27;20216;-86
2021/06/22 06:25:25;;;;;;;3.53;3.22;;;20.70;93.30;;;21.00;74.98;94420.56;5087671;28;20230;-86
2021/06/22 06:28:05;;;;;;;3.95;3.53;;;20.70;93.40;;;21.00;74.77;94410.69;5044287;28;20625;-85
2021/06/22 06:30:33;;;;;;;3.15;2.72;;;20.70;93.40;;;21.07;74.88;94423.75;4987544;28;20231;-85
2021/06/22 06:33:00;;;;;;;5.22;3.50;;;20.80;93.70;;;21.08;75.24;94414.66;4971629;28;20268;-86
2021/06/22 06:35:26;;;;;;;4.22;3.33;;;20.80;93.60;;;21.17;75.40;94412.25;4922682;28;20243;-86
2021/06/22 06:40:25;;;;;;;4.03;3.55;;;20.80;93.60;;;21.28;74.98;94429.81;5128292;27;20399;-86
2021/06/22 06:42:52;;;;;;;4.72;3.50;;;20.90;93.60;;;21.34;74.89;94447.41;5084744;28;20342;-87
2021/06/22 06:45:19;;;;;;;4.38;3.90;;;20.90;93.60;;;21.38;75.13;94419.09;5051925;28;20260;-85
2021/06/22 06:47:47;;;;;;;4.28;3.83;;;21.00;93.70;;;21.41;75.33;94418.56;5063170;28;20284;-85
2021/06/22 06:50:14;;;;;;;4.10;3.63;;;21.00;93.70;;;21.46;75.79;94432.97;5021932;28;20259;-84
2021/06/22 06:52:41;;;;;;;3.83;3.42;;;21.00;93.80;;;21.62;75.93;94433.72;4954709;28;20213;-85
2021/06/22 06:55:25;;;;;;;4.53;4.13;;;21.10;94.10;;;21.74;76.34;94426.22;4916912;29;20233;-85
2021/06/22 06:58:01;;;;;;;5.65;4.22;;;21.20;94.30;;;21.89;76.47;94428.00;4689938;29;20225;-85
2021/06/22 07:00:40;;;;;;;7.82;4.20;;;21.30;94.30;;;22.10;76.33;94441.25;5150938;27;20636;-85
2021/06/22 07:03:07;;;;;;;6.20;4.53;;;21.50;94.60;;;22.22;75.83;94442.50;5119532;28;20196;-85
2021/06/22 07:05:36;;;;;;;5.22;4.15;;;21.60;94.60;;;22.34;76.25;94442.16;5025570;28;20220;-84
2021/06/22 07:08:05;;;;;;;5.05;4.32;;;21.60;94.60;;;22.39;75.61;94441.38;4985795;28;20217;-85
2021/06/22 07:10:33;;;;;;;7.50;4.90;;;21.80;94.50;;;22.46;74.78;94451.72;4929341;28;20608;-84
2021/06/22 07:13:04;;;;;;;6.30;4.00;;;21.90;94.30;;;22.53;75.45;94461.03;4896326;29;20265;-83
2021/06/22 07:15:32;;;;;;;5.00;4.55;;;21.90;94.30;;;22.60;75.29;94455.38;4752739;29;20705;-84
2021/06/22 07:17:59;;;;;;;5.18;3.80;;;22.00;94.20;;;22.68;75.55;94457.47;4536359;31;20690;-84
2021/06/22 07:23:02;;;;;;;5.70;4.18;;;22.10;94.30;;;22.82;74.85;94457.59;5141889;27;21145;-85
2021/06/22 07:25:29;;;;;;;4.75;3.88;;;22.20;94.10;;;22.83;74.83;94461.88;5104665;28;20236;-85
2021/06/22 07:27:56;;;;;;;7.13;3.80;;;22.30;93.90;;;22.82;74.43;94464.84;5068968;28;20215;-85
2021/06/22 07:30:26;;;;;;;6.50;3.53;;;22.30;93.70;;;22.82;74.56;94460.28;5029513;28;20230;-85
2021/06/22 07:32:55;;;;;;;5.30;4.18;;;22.30;93.70;;;22.82;74.98;94460.28;4989892;28;20254;-84
2021/06/22 07:35:23;;;;;;;5.43;4.00;;;22.30;93.70;;;22.84;74.58;94468.03;4853725;29;20230;-84
2021/06/22 07:37:51;;;;;;;6.25;4.05;;;22.40;93.60;;;22.81;74.68;94465.91;4721627;30;20216;-84
2021/06/22 07:40:19;;;;;;;4.32;3.83;;;22.40;93.60;;;22.80;74.48;94469.66;4510261;31;20240;-85
2021/06/22 07:44:26;;;;;;;5.93;4.78;;;22.40;93.60;;;22.76;74.65;94468.63;5128315;27;21176;-86
2021/06/22 07:46:53;;;;;;;4.40;3.90;;;22.40;93.50;;;22.79;75.00;94470.72;5069073;28;20205;-85
2021/06/22 07:49:20;;;;;;;4.97;4.07;;;22.40;93.60;;;22.83;75.77;94461.09;5067046;28;20224;-84
2021/06/22 07:51:47;;;;;;;5.70;4.90;;;22.40;93.80;;;22.89;75.82;94462.63;5077936;28;20208;-84
2021/06/22 07:54:14;;;;;;;6.80;4.13;;;22.40;93.90;;;23.00;75.65;94466.81;5001076;28;20311;-85
2021/06/22 07:56:41;;;;;;;5.38;4.38;;;22.50;93.90;;;23.03;74.92;94471.59;4912090;28;20624;-85
2021/06/22 07:59:08;;;;;;;5.85;4.68;;;22.50;93.70;;;23.01;74.30;94475.66;4888339;29;20635;-85
2021/06/22 08:01:38;;;;;;;5.43;4.40;;;22.50;93.50;;;23.00;74.90;94474.03;4724130;29;20582;-85
2021/06/22 08:04:04;;;;;;;7.30;4.45;;;22.50;93.40;;;23.03;75.16;94484.16;4461554;31;20256;-84
2021/06/22 08:06:41;;;;;;;5.00;3.95;;;22.60;93.50;;;23.07;75.02;94479.88;5140512;27;20312;-85
2021/06/22 08:09:07;;;;;;;5.32;4.60;;;22.60;93.60;;;23.12;75.45;94493.19;5092172;28;20239;-85
2021/06/22 08:11:36;;;;;;;6.32;4.50;;;22.60;93.60;;;23.18;75.55;94489.41;5060744;28;20221;-85
2021/06/22 08:14:03;;;;;;;5.45;4.93;;;22.60;93.70;;;23.28;75.89;94488.53;5003547;28;20232;-84
2021/06/22 08:16:29;;;;;;;9.68;6.03;;;22.70;94.00;;;23.40;76.23;94488.16;4934824;28;20650;-85
2021/06/22 08:19:00;;;;;;;5.90;5.35;;;22.80;94.20;;;23.59;76.83;94490.88;4816175;29;20234;-84
2021/06/22 08:21:27;;;;;;;5.80;5.22;;;22.90;94.50;;;23.74;76.08;94506.00;4623072;30;20251;-84
2021/06/22 08:23:53;;;;;;;5.55;4.75;;;23.00;94.40;;;23.85;75.61;94498.63;4425272;31;20269;-85
2021/06/22 08:28:08;;;;;;;5.70;5.15;;;23.10;94.30;;;24.00;75.88;94492.31;5149004;27;21124;-85
2021/06/22 08:30:35;;;;;;;5.80;5.22;;;23.30;94.30;;;24.11;76.03;94495.69;5083170;28;20208;-85
2021/06/22 08:33:04;;;;;;;4.97;4.57;;;23.40;94.10;;;24.20;75.42;94498.50;5061702;28;20392;-85
2021/06/22 08:35:31;;;;;;;5.45;4.93;;;23.50;93.90;;;24.20;74.80;94504.66;5023138;28;20224;-85
2021/06/22 08:37:59;;;;;;;5.07;4.57;;;23.60;93.60;;;24.18;74.52;94500.66;5032063;28;20227;-84
2021/06/22 08:40:26;;;;;;;5.25;4.22;;;23.60;93.30;;;24.14;74.24;94508.47;5018864;28;20232;-85
2021/06/22 08:42:55;;;;;;;7.03;4.22;;;23.60;93.20;;;24.13;74.61;94506.88;4958687;28;20215;-85
2021/06/22 08:45:21;;;;;;;4.75;4.35;;;23.60;93.10;;;24.05;74.34;94502.19;4803685;29;20238;-84
2021/06/22 08:50:20;;;;;;;4.45;4.05;;;23.60;93.20;;;24.17;74.88;94509.78;5120413;27;20569;-84
2021/06/22 08:52:47;;;;;;;4.70;4.25;;;23.60;93.10;;;24.23;75.37;94503.28;5072084;28;20232;-84
2021/06/22 08:55:29;;;;;;;5.53;4.00;;;23.60;93.20;;;24.29;75.19;94502.13;5025308;28;20752;-84
2021/06/22 08:58:05;;;;;;;4.63;4.22;;;23.70;93.10;;;24.46;76.21;94496.25;4944009;28;20296;-85
2021/06/22 09:00:41;;;;;;;4.80;4.40;;;23.70;93.50;;;24.66;76.38;94505.94;4866777;29;20220;-84
2021/06/22 09:03:22;;;;;;;5.68;4.45;;;23.80;93.50;;;24.89;76.33;94508.78;4827275;29;20210;-84
2021/06/22 09:05:53;;;;;;;4.45;4.05;;;24.00;93.60;;;25.09;76.65;94505.00;4703853;29;20690;-84
2021/06/22 09:11:08;;;;;;;4.60;4.15;;;24.10;94.10;;;25.40;74.81;94512.53;5147499;27;20642;-84
2021/06/22 09:13:37;;;;;;;4.20;3.80;;;24.50;93.40;;;25.46;74.61;94514.03;5107188;27;20219;-84
2021/06/22 09:16:09;;;;;;;4.78;4.03;;;24.60;93.40;;;25.61;74.90;94502.25;5122700;27;20216;-85
2021/06/22 09:18:43;;;;;;;4.53;4.00;;;24.70;93.10;;;25.79;75.17;94505.91;5079444;28;20275;-84
2021/06/22 09:21:22;;;;;;;3.90;3.50;;;24.80;93.00;;;25.98;74.96;94508.50;5029812;28;20204;-84
2021/06/22 09:23:56;;;;;;;4.07;3.70;;;25.00;92.90;;;26.21;75.10;94516.69;5007911;28;20229;-84
2021/06/22 09:26:26;;;;;;;3.92;3.63;;;25.10;93.30;;;26.45;75.17;94505.69;4902032;28;20218;-84
2021/06/22 09:29:11;;;;;;;4.20;3.80;;;25.30;93.20;;;26.69;75.09;94515.38;4713411;29;20254;-84
2021/06/22 09:31:58;;;;;;;4.05;3.75;;;25.50;93.20;;;26.82;73.52;94505.72;5147991;27;20385;-85
2021/06/22 09:34:27;;;;;;;4.28;3.97;;;25.70;92.40;;;26.94;73.56;94505.94;5087971;28;20229;-83
2021/06/22 09:37:02;;;;;;;4.72;3.80;;;25.90;92.70;;;27.09;73.46;94504.78;5072969;28;20205;-83
2021/06/22 09:39:32;;;;;;;4.10;3.80;;;26.00;91.70;;;27.12;72.60;94500.69;5082905;28;20219;-83
2021/06/22 09:41:58;;;;;;;4.10;3.70;;;26.10;92.00;;;27.07;71.83;94503.50;5071337;28;20222;-84
2021/06/22 09:44:29;;;;;;;3.83;3.53;;;26.20;91.70;;;27.04;72.00;94506.78;5027593;28;20237;-84
2021/06/22 09:47:01;;;;;;;3.80;3.50;;;26.30;91.30;;;27.08;72.61;94505.09;4951671;28;20201;-84
2021/06/22 09:50:01;;;;;;;3.67;3.38;;;26.30;91.40;;;27.21;73.03;94504.22;5133948;27;20580;-85
2021/06/22 09:52:27;;;;;;;3.83;3.53;;;26.40;91.50;;;27.31;72.60;94503.97;5100764;28;20206;-85
2021/06/22 09:54:55;;;;;;;3.88;3.40;;;26.50;91.40;;;27.33;71.90;94507.16;5086084;28;20224;-84
2021/06/22 09:57:25;;;;;;;3.40;3.10;;;26.50;91.00;;;27.35;71.57;94504.13;5052739;28;20206;-84
2021/06/22 10:00:08;;;;;;;3.90;3.50;;;26.60;90.80;;;27.37;70.89;94509.22;5028187;28;20237;-85
2021/06/22 10:02:55;;;;;;;4.13;3.72;;;26.60;90.40;;;27.30;70.41;94512.34;5024051;28;20208;-85
2021/06/22 10:05:22;;;;;;;4.20;3.80;;;26.70;90.50;;;27.15;69.79;94516.22;4904196;29;20342;-84
2021/06/22 10:08:01;;;;;;;3.90;3.60;;;26.70;90.20;;;27.00;69.51;94517.38;4821844;29;20224;-84
2021/06/22 10:10:40;;;;;;;3.90;3.50;;;26.60;88.70;;;26.87;70.01;94524.41;5150928;27;20312;-85
2021/06/22 10:13:08;;;;;;;4.00;3.70;;;26.60;89.40;;;26.83;70.38;94518.03;5085395;27;20229;-86
2021/06/22 10:15:34;;;;;;;4.43;3.42;;;26.50;89.20;;;26.83;69.96;94518.03;5105493;28;20288;-85
2021/06/22 10:18:02;;;;;;;3.90;3.60;;;26.50;89.60;;;26.91;70.95;94520.00;5101941;28;21692;-85
2021/06/22 10:20:30;;;;;;;3.97;3.67;;;26.50;90.00;;;27.02;70.62;94528.63;5057885;28;20693;-84
2021/06/22 10:22:58;;;;;;;5.25;3.50;;;26.50;90.00;;;27.14;70.13;94523.50;5033767;28;20405;-83
2021/06/22 10:25:26;;;;;;;4.00;3.70;;;26.50;90.00;;;27.28;70.20;94528.81;4982089;28;20229;-84
2021/06/22 10:27:55;;;;;;;4.68;3.53;;;26.60;90.00;;;27.43;70.05;94530.34;4813451;29;20733;-83
2021/06/22 10:32:06;;;;;;;3.75;3.40;;;26.60;90.10;;;27.71;69.30;94532.88;5148743;27;21156;-85
2021/06/22 10:34:33;;;;;;;3.60;3.30;;;26.80;90.00;;;27.87;69.71;94533.25;5096264;28;20226;-85
2021/06/22 10:37:10;;;;;;;4.07;3.45;;;26.90;89.90;;;27.96;67.74;94528.72;5050378;28;20246;-84
2021/06/22 10:39:59;;;;;;;4.00;3.60;;;27.10;87.80;;;27.90;66.61;94538.00;4973067;28;20225;-85
2021/06/22 10:42:48;;;;;;;4.18;3.78;;;27.20;86.40;;;27.79;65.17;94537.53;4889711;29;20211;-85
2021/06/22 10:45:20;;;;;;;4.97;3.75;;;27.20;85.00;;;27.65;65.47;94536.81;4711193;30;20756;-84
2021/06/22 10:47:49;;;;;;;4.65;3.85;;;27.20;85.30;;;27.55;65.74;94537.06;4554328;30;20225;-85
2021/06/22 10:50:32;;;;;;;3.47;3.17;;;27.20;85.20;;;27.52;65.36;94535.00;5114302;27;20655;-84
2021/06/22 10:53:08;;;;;;;3.83;3.35;;;27.10;84.80;;;27.57;65.51;94534.88;5070713;28;20211;-83
2021/06/22 10:55:36;;;;;;;3.85;3.45;;;27.10;85.50;;;27.69;66.61;94532.38;5028522;28;20566;-85
2021/06/22 10:58:03;;;;;;;4.30;3.88;;;27.10;86.10;;;27.90;66.37;94537.22;5083993;28;20203;-85
2021/06/22 11:00:42;;;;;;;3.90;3.58;;;27.20;86.10;;;28.03;65.16;94530.16;4959830;28;20225;-85
2021/06/22 11:03:31;;;;;;;3.75;3.40;;;27.30;85.40;;;28.14;64.38;94530.66;4863225;29;20222;-85
2021/06/22 11:06:10;;;;;;;3.83;3.47;;;27.40;84.10;;;28.31;64.81;94538.81;4706468;29;20254;-86
2021/06/22 11:09:16;;;;;;;3.53;3.33;;;27.50;85.50;;;28.43;61.92;94539.00;5137034;27;20675;-85
2021/06/22 11:11:43;;;;;;;4.03;3.63;;;27.70;84.00;;;28.46;60.81;94531.38;5062476;28;20211;-85
2021/06/22 11:14:10;;;;;;;3.35;3.10;;;27.70;81.20;;;28.55;62.87;94535.69;5057848;28;20222;-86
2021/06/22 11:16:37;;;;;;;4.78;3.63;;;27.80;82.30;;;28.62;60.87;94534.41;5091472;28;20213;-84